< < Back
Terminal Aerodrome Forecast


Current Version              Previous Versions:   1  2  3  4  5  6  7  8  9  

Terminal Aerodrome Forecast

750
FTUS42 KFFC 240520
TAFAHN
TAF
KAHN 240520Z 2406/2506 08003KT P6SM BKN060
     FM240800 08003KT P6SM SCT010 BKN060
      TEMPO 2410/2413 4SM BR BKN008
     FM241400 10004KT P6SM SCT025 BKN060
     FM241600 10004KT P6SM SCT035 SCT060
     FM242000 09004KT P6SM SCT045 SCT070
     FM250100 09003KT P6SM SCT060 SCT150=

Latest METAR

469
SAUS70 KWBC 240754
MTRAHN
METAR KAHN 240751Z AUTO 00000KT 9SM BKN017 OVC031 23/23 A3023 RMK AO2
SLP229 T02330228


USA.gov is the U.S. government's official web portal to all federal, state and local government web resources and services.